Terminal Aerodrome Forecast
Issued by NWS

Home | Current Version | Previous Version | Graphics & Text | Print | Product List | Glossary On
Versions: 1 2 3 4 5 6 7 8 9 10 11 12 13 14
000
FTUS43 KUNR 261500 AAA
TAFGCC
TAF AMD
KGCC 261506Z 2615/2712 36009KT P6SM OVC012
      TEMPO 2615/2616 1SM -SN BR BKN008
     FM261900 33008KT P6SM BKN015=

USA.gov is the U.S. government's official web portal to all federal, state and local government web resources and services.